Time;durP1;ratioP1;P1;durP2;ratioP2;P2;SDS_P1;SDS_P2;PMS_P1;PMS_P2;Temp;Humidity;BMP_temperature;BMP_pressure;BME280_temperature;BME280_humidity;BME280_pressure;Samples;Min_cycle;Max_cycle;Signal;HPM_P1;HPM_P2
2021/08/25 00:00:09;;;;;;;;;;;18.20;92.30;18.40;99572.00;;;;343357;28;83361;-91
2021/08/25 00:00:21;;;;;;;;;;;18.20;92.40;18.40;99568.00;;;;342808;28;91835;-90
2021/08/25 00:00:33;;;;;;;;;;;18.20;92.40;18.30;99571.00;;;;344802;28;83528;-91
2021/08/25 00:00:46;;;;;;;;;;;18.20;92.40;18.40;99581.00;;;;344322;28;92307;-91
2021/08/25 00:00:58;;;;;;;;;;;18.20;92.40;18.40;99573.00;;;;346150;28;83360;-90
2021/08/25 00:01:13;;;;;;;;;;;18.20;92.40;18.40;99572.00;;;;346884;28;89841;-91
2021/08/25 00:01:25;;;;;;;;;;;18.20;92.40;18.30;99577.00;;;;344719;28;82441;-91
2021/08/25 00:01:38;;;;;;;;;;;18.20;92.40;18.30;99570.00;;;;345528;28;91127;-91
2021/08/25 00:01:50;;;;;;;;;;;18.20;92.50;18.30;99573.00;;;;344782;28;82486;-91
2021/08/25 00:02:02;;;;;;;;;;;18.20;92.50;18.30;99573.00;;;;343898;28;93061;-91
2021/08/25 00:02:14;;;;;;;;;;;18.20;92.50;18.30;99577.00;;;;345381;28;83624;-91
2021/08/25 00:02:26;;;;;;;;;;;18.20;92.50;18.30;99578.00;;;;340002;28;91302;-91
2021/08/25 00:02:39;;;;;;;;;;;18.20;92.50;18.40;99578.00;;;;344611;28;83415;-91
2021/08/25 00:02:51;;;;;;;;;;;18.20;92.50;18.40;99576.00;;;;345719;28;91184;-91
2021/08/25 00:03:05;;;;;;;;;;;18.20;92.50;18.40;99577.00;;;;343318;28;82315;-91
2021/08/25 00:03:17;;;;;;;;;;;18.20;92.50;18.40;99571.00;;;;344250;28;91936;-91
2021/08/25 00:03:29;;;;;;;;;;;18.20;92.50;18.30;99585.00;;;;344680;28;83876;-91
2021/08/25 00:03:41;;;;;;;;;;;18.20;92.50;18.30;99578.00;;;;345627;28;91571;-91
2021/08/25 00:03:53;;;;;;;;;;;18.20;92.50;18.30;99575.00;;;;346139;28;82553;-91
2021/08/25 00:04:05;;;;;;;;;;;18.20;92.50;18.30;99579.00;;;;342873;28;92089;-91
2021/08/25 00:04:17;;;;;;;;;;;18.20;92.50;18.30;99574.00;;;;343254;28;82636;-91
2021/08/25 00:04:29;;;;;;;;;;;18.20;92.50;18.20;99577.00;;;;344281;28;91591;-91
2021/08/25 00:04:41;;;;;;;;;;;18.20;92.60;18.30;99579.00;;;;347573;28;83289;-90
2021/08/25 00:04:54;;;;;;;;;;;18.20;92.60;18.40;99576.00;;;;347162;28;90838;-91
2021/08/25 00:05:08;;;;;;;;;;;18.20;92.50;18.40;99574.00;;;;344657;28;83322;-91
2021/08/25 00:05:20;;;;;;;;;;;18.20;92.50;18.40;99580.00;;;;343961;28;90533;-91
2021/08/25 00:05:32;;;;;;;;;;;18.20;92.60;18.40;99576.00;;;;346107;28;83353;-91
2021/08/25 00:05:44;;;;;;;;;;;18.20;92.60;18.40;99576.00;;;;345410;28;91756;-91
2021/08/25 00:05:56;;;;;;;;;;;18.20;92.50;18.40;99579.00;;;;347462;28;82582;-91
2021/08/25 00:06:08;;;;;;;;;;;18.20;92.50;18.40;99582.00;;;;342864;28;92888;-91
2021/08/25 00:06:20;;;;;;;;;;;18.20;92.50;18.40;99573.00;;;;344601;28;82591;-91
2021/08/25 00:06:31;;;;;;;;;;;18.20;92.50;18.40;99582.00;;;;347018;28;90292;-91
2021/08/25 00:06:43;;;;;;;;;;;18.20;92.50;18.40;99576.00;;;;343383;28;83358;-91
2021/08/25 00:06:55;;;;;;;;;;;18.20;92.40;18.30;99578.00;;;;344313;28;91893;-91
2021/08/25 00:07:07;;;;;;;;;;;18.20;92.50;18.30;99580.00;;;;347397;27;83528;-91
2021/08/25 00:07:20;;;;;;;;;;;18.20;92.50;18.30;99583.00;;;;341537;28;92054;-91
2021/08/25 00:07:32;;;;;;;;;;;18.20;92.50;18.30;99583.00;;;;345981;28;83308;-91
2021/08/25 00:07:44;;;;;;;;;;;18.20;92.50;18.40;99581.00;;;;345246;28;90510;-91
2021/08/25 00:07:56;;;;;;;;;;;18.20;92.50;18.40;99575.00;;;;343116;28;83506;-91
2021/08/25 00:08:07;;;;;;;;;;;18.20;92.50;18.30;99576.00;;;;342756;28;91906;-91
2021/08/25 00:08:20;;;;;;;;;;;18.20;92.50;18.30;99576.00;;;;337737;28;83551;-91
2021/08/25 00:08:32;;;;;;;;;;;18.20;92.50;18.30;99574.00;;;;342864;28;91349;-91
2021/08/25 00:08:44;;;;;;;;;;;18.20;92.50;18.40;99571.00;;;;343371;28;83412;-91
2021/08/25 00:08:57;;;;;;;;;;;18.20;92.50;18.40;99579.00;;;;342955;28;90861;-91
2021/08/25 00:09:09;;;;;;;;;;;18.20;92.50;18.30;99574.00;;;;347561;28;83321;-91
2021/08/25 00:09:21;;;;;;;;;;;18.20;92.50;18.40;99570.00;;;;344234;28;91858;-91
2021/08/25 00:09:34;;;;;;;;;;;18.20;92.50;18.30;99578.00;;;;345950;28;83415;-92
2021/08/25 00:09:47;;;;;;;;;;;18.20;92.50;18.40;99572.00;;;;345704;28;91442;-91
2021/08/25 00:09:59;;;;;;;;;;;18.20;92.50;18.40;99575.00;;;;336556;28;83366;-91
2021/08/25 00:10:11;;;;;;;;;;;18.20;92.50;18.40;99572.00;;;;342712;28;91517;-91
2021/08/25 00:10:23;;;;;;;;;;;18.20;92.50;18.30;99574.00;;;;343232;28;82601;-91
2021/08/25 00:10:35;;;;;;;;;;;18.20;92.40;18.30;99574.00;;;;341554;28;90598;-91
2021/08/25 00:10:47;;;;;;;;;;;18.20;92.50;18.40;99570.00;;;;344808;28;83453;-91
2021/08/25 00:10:58;;;;;;;;;;;18.20;92.50;18.40;99578.00;;;;344183;28;91420;-91
2021/08/25 00:11:10;;;;;;;;;;;18.20;92.50;18.40;99571.00;;;;343834;28;83345;-91
2021/08/25 00:11:22;;;;;;;;;;;18.20;92.50;18.40;99571.00;;;;344200;28;90509;-91
2021/08/25 00:11:34;;;;;;;;;;;18.20;92.50;18.40;99571.00;;;;346086;28;82487;-92
2021/08/25 00:11:45;;;;;;;;;;;18.20;92.50;18.50;99573.00;;;;345456;28;91275;-91
2021/08/25 00:11:57;;;;;;;;;;;18.20;92.50;18.40;99575.00;;;;346132;28;83293;-91
2021/08/25 00:12:10;;;;;;;;;;;18.20;92.50;18.40;99579.00;;;;347064;28;91398;-91
2021/08/25 00:12:22;;;;;;;;;;;18.20;92.50;18.40;99575.00;;;;343267;28;83487;-91
2021/08/25 00:12:33;;;;;;;;;;;18.20;92.40;18.40;99583.00;;;;344341;28;90317;-91
2021/08/25 00:12:45;;;;;;;;;;;18.20;92.40;18.40;99576.00;;;;343304;28;83351;-90
2021/08/25 00:12:57;;;;;;;;;;;18.20;92.40;18.40;99582.00;;;;342832;28;91989;-91
2021/08/25 00:13:09;;;;;;;;;;;18.20;92.40;18.50;99573.00;;;;344447;28;82635;-91
2021/08/25 00:13:21;;;;;;;;;;;18.20;92.40;18.50;99575.00;;;;341537;28;91353;-91
2021/08/25 00:13:32;;;;;;;;;;;18.20;92.40;18.40;99580.00;;;;343369;28;82501;-91
2021/08/25 00:13:44;;;;;;;;;;;18.20;92.40;18.40;99576.00;;;;341532;28;90514;-91
2021/08/25 00:13:56;;;;;;;;;;;18.20;92.40;18.50;99585.00;;;;342057;28;82554;-91
2021/08/25 00:14:08;;;;;;;;;;;18.20;92.40;18.40;99574.00;;;;342677;28;92503;-91
2021/08/25 00:14:20;;;;;;;;;;;18.20;92.40;18.40;99574.00;;;;344676;28;83556;-91
2021/08/25 00:14:32;;;;;;;;;;;18.20;92.40;18.30;99572.00;;;;345746;28;91569;-91
2021/08/25 00:14:44;;;;;;;;;;;18.20;92.40;18.40;99573.00;;;;343243;28;82692;-91
2021/08/25 00:14:56;;;;;;;;;;;18.20;92.40;18.30;99579.00;;;;336048;28;91977;-92
2021/08/25 00:15:08;;;;;;;;;;;18.20;92.40;18.10;99573.00;;;;343431;28;83253;-91
2021/08/25 00:15:20;;;;;;;;;;;18.20;92.50;18.00;99579.00;;;;337359;28;91062;-92
2021/08/25 00:15:36;;;;;;;;;;;18.10;92.50;18.20;99571.00;;;;346121;28;83364;-91
2021/08/25 00:15:47;;;;;;;;;;;18.10;92.50;18.20;99572.00;;;;345676;28;90844;-91
2021/08/25 00:16:00;;;;;;;;;;;18.10;92.50;18.10;99575.00;;;;343396;28;82471;-91
2021/08/25 00:16:11;;;;;;;;;;;18.10;92.40;18.20;99570.00;;;;344164;28;91939;-91
2021/08/25 00:16:23;;;;;;;;;;;18.10;92.50;18.20;99577.00;;;;345954;28;82573;-91
2021/08/25 00:16:35;;;;;;;;;;;18.10;92.50;18.30;99572.00;;;;345709;28;90458;-91
2021/08/25 00:16:47;;;;;;;;;;;18.10;92.50;18.30;99574.00;;;;344767;28;82464;-91
2021/08/25 00:16:59;;;;;;;;;;;18.10;92.50;18.30;99579.00;;;;341432;28;90385;-91
2021/08/25 00:17:11;;;;;;;;;;;18.10;92.50;18.30;99577.00;;;;343784;28;82611;-91
2021/08/25 00:17:22;;;;;;;;;;;18.10;92.50;18.30;99579.00;;;;347007;28;90481;-91
2021/08/25 00:17:35;;;;;;;;;;;18.10;92.50;18.40;99574.00;;;;344669;28;83281;-91
2021/08/25 00:17:47;;;;;;;;;;;18.10;92.50;18.30;99575.00;;;;339981;28;92009;-91
2021/08/25 00:17:58;;;;;;;;;;;18.10;92.50;18.30;99578.00;;;;337858;28;83375;-91
2021/08/25 00:18:10;;;;;;;;;;;18.10;92.50;18.20;99580.00;;;;342933;28;91816;-91
2021/08/25 00:18:22;;;;;;;;;;;18.10;92.50;18.30;99576.00;;;;347381;27;82575;-91
2021/08/25 00:18:34;;;;;;;;;;;18.10;92.50;18.30;99583.00;;;;344096;28;91927;-91
2021/08/25 00:18:46;;;;;;;;;;;18.10;92.50;18.30;99584.00;;;;344608;28;83423;-92
2021/08/25 00:18:58;;;;;;;;;;;18.10;92.50;18.30;99575.00;;;;347050;28;90285;-91
2021/08/25 00:19:10;;;;;;;;;;;18.10;92.50;18.30;99582.00;;;;344702;28;83427;-91
2021/08/25 00:19:22;;;;;;;;;;;18.10;92.50;18.40;99583.00;;;;344236;28;90812;-91
2021/08/25 00:19:33;;;;;;;;;;;18.10;92.50;18.30;99571.00;;;;344741;28;83311;-91
2021/08/25 00:19:46;;;;;;;;;;;18.10;92.50;18.40;99580.00;;;;342936;28;90865;-91
2021/08/25 00:19:58;;;;;;;;;;;18.10;92.60;18.30;99573.00;;;;344561;28;83336;-91
2021/08/25 00:20:10;;;;;;;;;;;18.10;92.50;18.30;99583.00;;;;343160;28;91547;-91
2021/08/25 00:20:22;;;;;;;;;;;18.10;92.50;18.30;99581.00;;;;344486;28;83486;-90
2021/08/25 00:20:34;;;;;;;;;;;18.10;92.50;18.30;99578.00;;;;342909;28;91318;-91
2021/08/25 00:20:46;;;;;;;;;;;18.10;92.50;18.30;99576.00;;;;344608;28;82613;-90
2021/08/25 00:20:58;;;;;;;;;;;18.10;92.50;18.40;99579.00;;;;345428;28;90906;-90
2021/08/25 00:21:10;;;;;;;;;;;18.10;92.50;18.40;99585.00;;;;345946;28;83528;-91
2021/08/25 00:21:22;;;;;;;;;;;18.10;92.50;18.40;99580.00;;;;342969;28;90720;-91
2021/08/25 00:21:33;;;;;;;;;;;18.10;92.50;18.40;99586.00;;;;346044;28;83334;-91
2021/08/25 00:21:45;;;;;;;;;;;18.10;92.50;18.40;99586.00;;;;345438;28;89283;-91
2021/08/25 00:21:57;;;;;;;;;;;18.20;92.50;18.40;99582.00;;;;343274;28;83424;-91
2021/08/25 00:22:11;;;;;;;;;;;18.20;92.50;18.40;99586.00;;;;345506;28;93240;-91
2021/08/25 00:22:23;;;;;;;;;;;18.10;92.50;18.40;99582.00;;;;343337;28;82524;-91
2021/08/25 00:22:35;;;;;;;;;;;18.10;92.50;18.40;99575.00;;;;344323;28;90751;-91
2021/08/25 00:22:46;;;;;;;;;;;18.10;92.50;18.40;99583.00;;;;344721;28;82552;-91
2021/08/25 00:22:59;;;;;;;;;;;18.10;92.50;18.40;99582.00;;;;342694;28;91714;-91
2021/08/25 00:23:11;;;;;;;;;;;18.10;92.50;18.40;99579.00;;;;337686;28;83364;-91
2021/08/25 00:23:22;;;;;;;;;;;18.10;92.50;18.30;99579.00;;;;344300;28;91224;-91
2021/08/25 00:23:34;;;;;;;;;;;18.10;92.80;18.30;99586.00;;;;343039;28;82515;-92
2021/08/25 00:23:46;;;;;;;;;;;18.10;92.50;18.30;99583.00;;;;342928;28;90576;-92
2021/08/25 00:23:58;;;;;;;;;;;18.10;92.50;18.40;99583.00;;;;344639;28;83451;-91
2021/08/25 00:24:10;;;;;;;;;;;18.10;92.40;18.30;99579.00;;;;342893;28;92715;-91
2021/08/25 00:24:22;;;;;;;;;;;18.10;92.50;18.30;99586.00;;;;343276;28;83440;-91
2021/08/25 00:24:34;;;;;;;;;;;18.10;92.50;18.30;99571.00;;;;344246;28;87660;-90
2021/08/25 00:24:46;;;;;;;;;;;18.10;92.50;18.30;99580.00;;;;345794;28;83505;-91
2021/08/25 00:24:58;;;;;;;;;;;18.10;92.50;18.30;99576.00;;;;344256;28;91858;-91
2021/08/25 00:25:10;;;;;;;;;;;18.10;92.50;18.30;99575.00;;;;346120;28;83427;-90
2021/08/25 00:25:22;;;;;;;;;;;18.10;92.50;18.30;99575.00;;;;341412;28;91070;-91
2021/08/25 00:25:34;;;;;;;;;;;18.10;92.50;18.30;99577.00;;;;344589;28;83557;-91
2021/08/25 00:25:45;;;;;;;;;;;18.10;92.50;18.30;99581.00;;;;344110;28;89626;-91
2021/08/25 00:25:58;;;;;;;;;;;18.10;92.50;18.30;99577.00;;;;343258;28;82486;-91
2021/08/25 00:26:10;;;;;;;;;;;18.10;92.50;18.30;99577.00;;;;348719;27;88912;-91
2021/08/25 00:26:22;;;;;;;;;;;18.10;92.40;18.30;99576.00;;;;344601;28;82562;-91
2021/08/25 00:26:34;;;;;;;;;;;18.10;92.40;18.30;99579.00;;;;346980;28;91859;-91
2021/08/25 00:26:46;;;;;;;;;;;18.10;92.40;18.30;99576.00;;;;347404;28;83314;-91
2021/08/25 00:26:58;;;;;;;;;;;18.10;92.40;18.30;99581.00;;;;342681;28;90360;-92
2021/08/25 00:27:10;;;;;;;;;;;18.10;92.40;18.30;99581.00;;;;344635;28;82592;-91
2021/08/25 00:27:22;;;;;;;;;;;18.10;92.40;18.20;99582.00;;;;344275;28;91278;-91
2021/08/25 00:27:34;;;;;;;;;;;18.10;92.50;18.20;99578.00;;;;345988;28;83556;-91
2021/08/25 00:27:45;;;;;;;;;;;18.10;92.40;18.20;99579.00;;;;345530;28;92196;-91
2021/08/25 00:27:57;;;;;;;;;;;18.10;92.40;18.20;99578.00;;;;344667;28;83418;-92
2021/08/25 00:28:09;;;;;;;;;;;18.10;92.40;18.30;99576.00;;;;349765;27;92416;-91
2021/08/25 00:28:21;;;;;;;;;;;18.10;92.40;18.30;99578.00;;;;346062;28;83427;-91
2021/08/25 00:28:34;;;;;;;;;;;18.10;92.40;18.20;99577.00;;;;345582;28;91052;-91
2021/08/25 00:28:46;;;;;;;;;;;18.10;92.40;18.20;99579.00;;;;344634;28;83489;-91
2021/08/25 00:28:58;;;;;;;;;;;18.10;92.40;18.30;99579.00;;;;342719;28;90831;-91
2021/08/25 00:29:10;;;;;;;;;;;18.10;92.40;18.20;99583.00;;;;344662;28;82503;-91
2021/08/25 00:29:22;;;;;;;;;;;18.10;92.40;18.10;99579.00;;;;344266;28;90794;-91
2021/08/25 00:29:33;;;;;;;;;;;18.10;92.40;18.10;99579.00;;;;346085;28;82456;-91
2021/08/25 00:29:45;;;;;;;;;;;18.10;92.50;18.10;99576.00;;;;345585;28;91659;-90
2021/08/25 00:29:57;;;;;;;;;;;18.10;92.40;18.20;99580.00;;;;341961;28;82404;-91
2021/08/25 00:30:09;;;;;;;;;;;18.10;92.50;18.20;99574.00;;;;345244;28;91495;-91
2021/08/25 00:30:21;;;;;;;;;;;18.10;92.50;18.20;99581.00;;;;343245;28;82529;-91
2021/08/25 00:30:33;;;;;;;;;;;18.10;92.50;18.20;99586.00;;;;342915;28;90322;-91
2021/08/25 00:30:45;;;;;;;;;;;18.10;92.50;18.20;99582.00;;;;344661;28;83436;-91
2021/08/25 00:30:57;;;;;;;;;;;18.10;92.50;18.20;99581.00;;;;344228;28;91729;-90
2021/08/25 00:31:09;;;;;;;;;;;18.10;92.40;18.20;99573.00;;;;346084;28;83394;-91
2021/08/25 00:31:21;;;;;;;;;;;18.10;92.40;18.20;99575.00;;;;342937;28;92062;-91
2021/08/25 00:31:32;;;;;;;;;;;18.10;92.40;18.20;99581.00;;;;346092;28;82494;-91
2021/08/25 00:31:44;;;;;;;;;;;18.10;92.40;18.10;99569.00;;;;346696;27;91925;-91
2021/08/25 00:31:56;;;;;;;;;;;18.10;92.50;18.20;99574.00;;;;343472;28;82513;-91
2021/08/25 00:32:08;;;;;;;;;;;18.00;92.40;18.20;99575.00;;;;345254;28;91462;-90
2021/08/25 00:32:20;;;;;;;;;;;18.00;92.40;18.10;99574.00;;;;346080;28;83450;-90
2021/08/25 00:32:32;;;;;;;;;;;18.00;92.50;18.10;99570.00;;;;342730;28;93561;-91
2021/08/25 00:32:43;;;;;;;;;;;18.00;92.50;18.10;99569.00;;;;344775;28;83340;-91
2021/08/25 00:32:55;;;;;;;;;;;18.00;92.50;18.10;99564.00;;;;344055;28;90781;-91
2021/08/25 00:33:07;;;;;;;;;;;18.00;92.60;18.00;99568.00;;;;343279;28;83422;-91
2021/08/25 00:33:19;;;;;;;;;;;18.00;92.50;18.00;99571.00;;;;347017;28;91460;-91
2021/08/25 00:33:31;;;;;;;;;;;18.00;92.60;18.00;99567.00;;;;347397;28;82496;-91
2021/08/25 00:33:42;;;;;;;;;;;17.90;92.60;18.00;99568.00;;;;345357;28;91023;-91
2021/08/25 00:33:54;;;;;;;;;;;17.90;92.60;18.10;99574.00;;;;346005;28;83375;-91
2021/08/25 00:34:07;;;;;;;;;;;17.90;92.60;18.10;99572.00;;;;346942;28;92624;-91
2021/08/25 00:34:19;;;;;;;;;;;17.90;92.70;18.10;99577.00;;;;344587;28;83404;-91
2021/08/25 00:34:31;;;;;;;;;;;17.90;92.70;18.10;99567.00;;;;344303;28;90176;-91
2021/08/25 00:34:42;;;;;;;;;;;17.90;92.70;18.10;99575.00;;;;347397;28;83489;-91
2021/08/25 00:34:54;;;;;;;;;;;17.90;92.70;18.10;99565.00;;;;341506;28;91763;-91
2021/08/25 00:35:06;;;;;;;;;;;17.90;92.70;18.10;99576.00;;;;344661;28;82445;-91
2021/08/25 00:35:18;;;;;;;;;;;17.90;92.70;18.20;99572.00;;;;343922;28;91986;-90
2021/08/25 00:35:30;;;;;;;;;;;17.90;92.70;18.20;99574.00;;;;346147;28;83463;-91
2021/08/25 00:35:42;;;;;;;;;;;17.90;92.70;18.10;99576.00;;;;344196;28;91326;-91
2021/08/25 00:35:54;;;;;;;;;;;17.90;92.70;18.00;99567.00;;;;340581;28;82376;-91
2021/08/25 00:36:06;;;;;;;;;;;17.90;92.70;18.10;99570.00;;;;342742;28;92697;-91
2021/08/25 00:36:17;;;;;;;;;;;17.90;92.80;18.10;99573.00;;;;343271;28;83407;-91
2021/08/25 00:36:29;;;;;;;;;;;17.80;92.70;18.10;99574.00;;;;344281;28;91653;-91
2021/08/25 00:36:41;;;;;;;;;;;17.80;92.70;18.10;99571.00;;;;346049;28;83521;-91
2021/08/25 00:36:53;;;;;;;;;;;17.80;92.70;18.00;99570.00;;;;344280;28;90515;-91
2021/08/25 00:37:05;;;;;;;;;;;17.90;92.80;18.00;99567.00;;;;344560;28;83517;-91
2021/08/25 00:37:16;;;;;;;;;;;17.80;92.80;18.00;99572.00;;;;344184;28;90660;-91
2021/08/25 00:37:28;;;;;;;;;;;17.80;92.80;18.10;99572.00;;;;344683;28;82423;-91
2021/08/25 00:37:40;;;;;;;;;;;17.90;92.80;18.10;99575.00;;;;344132;28;91281;-91
2021/08/25 00:37:52;;;;;;;;;;;17.80;92.80;18.10;99573.00;;;;343321;28;83434;-91
2021/08/25 00:38:04;;;;;;;;;;;17.80;92.80;18.10;99567.00;;;;344233;28;92070;-91
2021/08/25 00:38:16;;;;;;;;;;;17.90;92.80;18.00;99567.00;;;;347253;28;82500;-91
2021/08/25 00:38:28;;;;;;;;;;;17.90;92.80;18.10;99571.00;;;;344299;28;91552;-91
2021/08/25 00:38:40;;;;;;;;;;;17.80;92.80;18.10;99567.00;;;;343420;28;83442;-91
2021/08/25 00:38:51;;;;;;;;;;;17.80;92.80;18.00;99563.00;;;;344280;28;91590;-91
2021/08/25 00:39:03;;;;;;;;;;;17.80;92.80;18.00;99567.00;;;;344616;28;83486;-92
2021/08/25 00:39:15;;;;;;;;;;;17.80;92.80;18.10;99569.00;;;;344290;28;89921;-91
2021/08/25 00:39:27;;;;;;;;;;;17.80;92.80;18.10;99567.00;;;;347524;28;82445;-91
2021/08/25 00:39:39;;;;;;;;;;;17.80;92.80;17.90;99570.00;;;;342816;28;90699;-91
2021/08/25 00:39:50;;;;;;;;;;;17.80;92.80;17.90;99571.00;;;;343439;28;82503;-91
2021/08/25 00:40:03;;;;;;;;;;;17.80;92.80;18.00;99562.00;;;;344098;28;92537;-91
2021/08/25 00:40:15;;;;;;;;;;;17.80;92.80;17.90;99566.00;;;;343048;28;83481;-91
2021/08/25 00:40:27;;;;;;;;;;;17.80;92.90;18.00;99574.00;;;;344319;28;90902;-91
2021/08/25 00:40:38;;;;;;;;;;;17.80;92.90;18.00;99567.00;;;;344729;28;82464;-91
2021/08/25 00:40:50;;;;;;;;;;;17.80;92.90;18.10;99568.00;;;;344271;28;91643;-90
2021/08/25 00:41:03;;;;;;;;;;;17.80;92.90;17.90;99562.00;;;;343218;28;83479;-90
2021/08/25 00:41:15;;;;;;;;;;;17.80;92.90;17.80;99574.00;;;;345170;28;90133;-91
2021/08/25 00:41:27;;;;;;;;;;;17.80;92.90;17.80;99565.00;;;;344668;28;83389;-91
2021/08/25 00:41:38;;;;;;;;;;;17.80;93.00;18.00;99566.00;;;;345520;28;91811;-91
2021/08/25 00:41:50;;;;;;;;;;;17.80;93.00;17.90;99562.00;;;;346073;28;83332;-91
2021/08/25 00:42:02;;;;;;;;;;;17.80;93.00;17.90;99564.00;;;;344112;28;91363;-91
2021/08/25 00:42:14;;;;;;;;;;;17.70;93.00;17.90;99555.00;;;;336997;28;83431;-91
2021/08/25 00:42:26;;;;;;;;;;;17.70;93.00;17.90;99568.00;;;;341253;28;91905;-91
2021/08/25 00:42:38;;;;;;;;;;;17.80;93.00;17.90;99566.00;;;;346111;28;82516;-91
2021/08/25 00:42:50;;;;;;;;;;;17.70;92.90;18.00;99571.00;;;;345451;28;91280;-91
2021/08/25 00:43:05;;;;;;;;;;;17.70;92.90;17.90;99568.00;;;;343266;28;84681;-91
2021/08/25 00:43:17;;;;;;;;;;;17.70;93.00;18.00;99571.00;;;;342855;28;91340;-91
2021/08/25 00:43:29;;;;;;;;;;;17.70;93.00;18.00;99569.00;;;;343310;28;83318;-91
2021/08/25 00:43:41;;;;;;;;;;;17.70;93.00;17.90;99566.00;;;;342848;28;91949;-91
2021/08/25 00:43:53;;;;;;;;;;;17.70;93.00;17.90;99567.00;;;;342012;28;82506;-92
2021/08/25 00:44:05;;;;;;;;;;;17.70;93.00;18.00;99566.00;;;;344086;28;91255;-91
2021/08/25 00:44:17;;;;;;;;;;;17.70;93.00;17.90;99568.00;;;;343914;28;84099;-91
2021/08/25 00:44:28;;;;;;;;;;;17.70;93.00;17.90;99571.00;;;;344207;28;90458;-92
2021/08/25 00:44:40;;;;;;;;;;;17.70;93.00;17.90;99563.00;;;;346075;28;82493;-91
2021/08/25 00:44:52;;;;;;;;;;;17.70;93.20;17.80;99569.00;;;;345696;28;91110;-91
2021/08/25 00:45:07;;;;;;;;;;;17.70;93.00;17.90;99575.00;;;;339135;28;83450;-90
2021/08/25 00:45:19;;;;;;;;;;;17.70;93.00;17.90;99566.00;;;;337412;28;90951;-91
2021/08/25 00:45:39;;;;;;;;;;;17.70;93.00;17.80;99570.00;;;;347437;28;83310;-91
2021/08/25 00:45:51;;;;;;;;;;;17.70;93.00;18.00;99575.00;;;;344090;28;91839;-91
2021/08/25 00:46:04;;;;;;;;;;;17.70;93.00;17.90;99570.00;;;;344791;28;83340;-91
2021/08/25 00:46:16;;;;;;;;;;;17.70;93.10;17.80;99566.00;;;;345450;28;92982;-91
2021/08/25 00:46:29;;;;;;;;;;;17.70;93.10;17.70;99569.00;;;;344514;28;83426;-91
2021/08/25 00:46:42;;;;;;;;;;;17.70;93.00;17.90;99571.00;;;;345724;28;90762;-91
2021/08/25 00:46:54;;;;;;;;;;;17.70;93.00;17.80;99567.00;;;;347436;28;83403;-91
2021/08/25 00:47:06;;;;;;;;;;;17.70;93.10;17.80;99569.00;;;;344167;28;91218;-91
2021/08/25 00:47:17;;;;;;;;;;;17.70;93.10;17.80;99573.00;;;;341898;28;82488;-91
2021/08/25 00:47:32;;;;;;;;;;;17.70;93.10;17.90;99571.00;;;;345629;28;90356;-91
2021/08/25 00:47:44;;;;;;;;;;;17.60;93.10;17.90;99571.00;;;;344565;28;83393;-91
2021/08/25 00:47:56;;;;;;;;;;;17.70;93.10;17.80;99568.00;;;;345687;28;91999;-91
2021/08/25 00:48:09;;;;;;;;;;;17.70;93.10;17.80;99566.00;;;;345957;28;83481;-91
2021/08/25 00:48:20;;;;;;;;;;;17.70;93.10;17.90;99573.00;;;;339958;28;93020;-91
2021/08/25 00:48:32;;;;;;;;;;;17.70;93.10;17.90;99578.00;;;;344710;28;82543;-91
2021/08/25 00:48:47;;;;;;;;;;;17.60;93.10;18.00;99570.00;;;;348426;27;91310;-91
2021/08/25 00:48:59;;;;;;;;;;;17.70;93.20;18.00;99564.00;;;;343136;28;83439;-92
2021/08/25 00:49:18;;;;;;;;;;;17.70;93.20;18.00;99569.00;;;;342840;28;91605;-91
2021/08/25 00:49:29;;;;;;;;;;;17.70;93.20;18.00;99575.00;;;;343270;28;83447;-91
2021/08/25 00:49:43;;;;;;;;;;;17.70;93.10;18.00;99563.00;;;;345659;28;91875;-91
2021/08/25 00:49:55;;;;;;;;;;;17.70;93.10;17.90;99568.00;;;;343400;28;83443;-91
2021/08/25 00:50:08;;;;;;;;;;;17.70;93.10;17.90;99577.00;;;;345367;28;91651;-92
2021/08/25 00:50:20;;;;;;;;;;;17.70;93.10;17.90;99575.00;;;;343164;28;83425;-91
2021/08/25 00:50:32;;;;;;;;;;;17.70;93.10;17.90;99576.00;;;;341371;28;92950;-91
2021/08/25 00:50:48;;;;;;;;;;;17.70;93.10;18.00;99579.00;;;;344727;28;83390;-91
2021/08/25 00:51:00;;;;;;;;;;;17.70;93.20;17.90;99578.00;;;;345568;28;91687;-92
2021/08/25 00:51:12;;;;;;;;;;;17.70;93.10;17.80;99573.00;;;;341855;28;83943;-91
2021/08/25 00:51:24;;;;;;;;;;;17.70;93.10;17.80;99578.00;;;;344203;28;90264;-91
2021/08/25 00:51:35;;;;;;;;;;;17.70;93.00;17.90;99573.00;;;;343347;28;83379;-91
2021/08/25 00:51:48;;;;;;;;;;;17.70;93.10;18.00;99566.00;;;;342893;28;90428;-90
2021/08/25 00:51:59;;;;;;;;;;;17.70;93.10;18.00;99571.00;;;;344710;28;82481;-91
2021/08/25 00:52:11;;;;;;;;;;;17.70;93.10;18.00;99577.00;;;;344139;28;90282;-90
2021/08/25 00:52:23;;;;;;;;;;;17.70;93.10;18.00;99567.00;;;;344577;28;83500;-90
2021/08/25 00:52:36;;;;;;;;;;;17.70;93.10;18.00;99572.00;;;;345467;28;91878;-91
2021/08/25 00:52:48;;;;;;;;;;;17.70;93.00;17.90;99582.00;;;;344645;28;83355;-91
2021/08/25 00:53:00;;;;;;;;;;;17.70;93.00;18.00;99574.00;;;;345464;28;91187;-90
2021/08/25 00:53:12;;;;;;;;;;;17.70;93.00;18.00;99580.00;;;;344645;28;82566;-91
2021/08/25 00:53:26;;;;;;;;;;;17.70;93.00;17.90;99577.00;;;;342873;28;90314;-91
2021/08/25 00:53:47;;;;;;;;;;;17.70;93.00;18.00;99583.00;;;;344605;28;82527;-91
2021/08/25 00:54:02;;;;;;;;;;;17.70;93.00;17.90;99577.00;;;;344106;28;91547;-91
2021/08/25 00:54:17;;;;;;;;;;;17.80;93.00;18.00;99578.00;;;;344631;28;83417;-91
2021/08/25 00:54:29;;;;;;;;;;;17.80;93.00;17.90;99582.00;;;;345559;28;91463;-91
2021/08/25 00:54:41;;;;;;;;;;;17.80;93.00;17.90;99576.00;;;;343321;28;83323;-91
2021/08/25 00:54:53;;;;;;;;;;;17.80;93.00;18.00;99578.00;;;;345529;28;92782;-91
2021/08/25 00:55:06;;;;;;;;;;;17.80;93.00;18.00;99570.00;;;;343336;28;83453;-91
2021/08/25 00:55:18;;;;;;;;;;;17.80;93.00;17.90;99573.00;;;;338695;28;91369;-91
2021/08/25 00:55:39;;;;;;;;;;;17.80;92.90;17.70;99579.00;;;;339151;28;82480;-91
2021/08/25 00:55:51;;;;;;;;;;;17.80;92.90;17.60;99574.00;;;;341594;28;90276;-91
2021/08/25 00:56:05;;;;;;;;;;;17.70;93.20;17.80;99577.00;;;;344792;28;82456;-91
2021/08/25 00:56:17;;;;;;;;;;;17.70;92.90;17.80;99580.00;;;;345594;28;90933;-91
2021/08/25 00:56:29;;;;;;;;;;;17.70;93.00;17.80;99579.00;;;;343274;28;82523;-91
2021/08/25 00:56:42;;;;;;;;;;;17.70;93.00;17.80;99579.00;;;;344206;28;91845;-90
2021/08/25 00:56:54;;;;;;;;;;;17.70;93.00;17.70;99572.00;;;;344576;28;83341;-91
2021/08/25 00:57:06;;;;;;;;;;;17.70;92.90;17.70;99578.00;;;;345580;28;91781;-91
2021/08/25 00:57:18;;;;;;;;;;;17.60;92.90;17.60;99575.00;;;;344662;28;82536;-91
2021/08/25 00:57:30;;;;;;;;;;;17.60;92.90;17.70;99587.00;;;;340136;28;91639;-91
2021/08/25 00:57:42;;;;;;;;;;;17.70;93.00;17.80;99574.00;;;;344670;28;82587;-91
2021/08/25 00:57:53;;;;;;;;;;;17.60;93.00;17.80;99572.00;;;;343973;28;92410;-91
2021/08/25 00:58:05;;;;;;;;;;;17.60;93.10;17.80;99570.00;;;;344675;28;83351;-91
2021/08/25 00:58:17;;;;;;;;;;;17.60;93.00;17.80;99570.00;;;;344067;28;91697;-91
2021/08/25 00:58:29;;;;;;;;;;;17.60;93.00;17.80;99579.00;;;;340540;28;82526;-91
2021/08/25 00:58:41;;;;;;;;;;;17.70;93.00;17.80;99572.00;;;;345765;28;89202;-91
2021/08/25 00:58:53;;;;;;;;;;;17.70;93.00;17.80;99570.00;;;;344745;28;82471;-90
2021/08/25 00:59:05;;;;;;;;;;;17.60;92.90;17.90;99578.00;;;;342789;28;91660;-91
2021/08/25 00:59:17;;;;;;;;;;;17.60;93.00;17.80;99574.00;;;;344602;28;83485;-91
2021/08/25 00:59:32;;;;;;;;;;;17.60;93.00;17.70;99579.00;;;;344233;28;92047;-91
2021/08/25 00:59:44;;;;;;;;;;;17.60;93.00;17.70;99577.00;;;;343333;28;82580;-91
2021/08/25 00:59:56;;;;;;;;;;;17.60;92.90;17.70;99579.00;;;;340299;28;89594;-91
2021/08/25 01:00:12;;;;;;;;;;;17.60;92.90;17.80;99573.00;;;;341836;28;83486;-91
2021/08/25 01:00:24;;;;;;;;;;;17.60;93.00;17.80;99574.00;;;;344152;28;90421;-91
2021/08/25 01:00:46;;;;;;;;;;;17.60;93.00;17.70;99584.00;;;;344661;28;83441;-91